Time;durP1;ratioP1;P1;durP2;ratioP2;P2;SDS_P1;SDS_P2;PMS_P1;PMS_P2;Temp;Humidity;BMP_temperature;BMP_pressure;BME280_temperature;BME280_humidity;BME280_pressure;Samples;Min_cycle;Max_cycle;Signal;HPM_P1;HPM_P2
2022/05/25 00:01:43;;;;;;;6.20;4.13;;;;;;;11.07;100.00;95179.75;5055079;28;20041;-74
2022/05/25 00:04:09;;;;;;;8.70;4.72;;;;;;;11.06;100.00;95178.19;5059820;28;20165;-74
2022/05/25 00:06:35;;;;;;;8.30;4.57;;;;;;;11.11;100.00;95178.13;5061256;28;20495;-74
2022/05/25 00:09:00;;;;;;;10.23;4.68;;;;;;;11.13;100.00;95181.25;5057817;28;20039;-74
2022/05/25 00:11:26;;;;;;;7.18;4.78;;;;;;;11.23;100.00;95177.72;5056192;28;20041;-74
2022/05/25 00:13:52;;;;;;;7.82;4.50;;;;;;;11.16;100.00;95178.09;5053050;28;20049;-74
2022/05/25 00:16:18;;;;;;;7.35;4.47;;;;;;;11.11;100.00;95164.97;5061034;28;20090;-73
2022/05/25 00:21:28;;;;;;;7.95;4.65;;;;;;;11.12;100.00;95166.53;5060509;28;20048;-73
2022/05/25 00:23:53;;;;;;;8.57;4.85;;;;;;;11.07;100.00;95169.22;5064246;28;20498;-74
2022/05/25 00:26:19;;;;;;;10.27;5.55;;;;;;;11.05;100.00;95155.56;5067779;28;20044;-74
2022/05/25 00:28:44;;;;;;;11.32;4.97;;;;;;;11.00;100.00;95147.72;5060685;28;20116;-74
2022/05/25 00:31:10;;;;;;;8.07;5.10;;;;;;;11.01;100.00;95150.06;5056137;28;20040;-74
2022/05/25 00:33:35;;;;;;;9.55;5.88;;;;;;;11.10;100.00;95142.31;5054415;28;20032;-74
2022/05/25 00:36:01;;;;;;;11.10;5.38;;;;;;;11.06;100.00;95146.56;5060551;28;20642;-74
2022/05/25 00:38:26;;;;;;;8.57;5.30;;;;;;;11.03;100.00;95142.69;5048880;28;20044;-74
2022/05/25 00:40:52;;;;;;;7.47;5.30;;;;;;;11.05;100.00;95150.28;5055141;28;20536;-73
2022/05/25 00:43:18;;;;;;;13.23;5.00;;;;;;;11.13;100.00;95157.56;5056660;28;20043;-74
2022/05/25 00:45:51;;;;;;;11.88;4.82;;;;;;;11.14;100.00;95153.88;5048963;28;20044;-74
2022/05/25 00:48:40;;;;;;;19.00;4.82;;;;;;;11.15;100.00;95139.63;5048767;28;20041;-73
2022/05/25 00:51:12;;;;;;;8.25;4.80;;;;;;;11.11;100.00;95137.84;5064788;28;20064;-74
2022/05/25 00:53:44;;;;;;;9.85;4.97;;;;;;;11.03;100.00;95136.59;5061789;28;20041;-73
2022/05/25 00:56:15;;;;;;;8.43;5.07;;;;;;;11.01;100.00;95133.50;5060384;28;20044;-74
2022/05/25 00:58:52;;;;;;;7.93;5.43;;;;;;;10.98;100.00;95134.06;5056932;28;20036;-74
2022/05/25 01:01:18;;;;;;;8.07;5.00;;;;;;;11.06;100.00;95139.47;5061907;28;20049;-74
2022/05/25 01:03:43;;;;;;;7.50;5.22;;;;;;;11.01;100.00;95133.50;5061428;28;20037;-74
2022/05/25 01:06:38;;;;;;;7.60;5.05;;;;;;;11.03;100.00;95136.59;5072456;28;20033;-74
2022/05/25 01:09:34;;;;;;;12.38;5.03;;;;;;;10.99;100.00;95140.88;5052254;28;20044;-74
2022/05/25 01:12:18;;;;;;;8.10;5.03;;;;;;;10.96;100.00;95144.06;5052051;28;20037;-74
2022/05/25 01:15:16;;;;;;;12.73;4.97;;;;;;;10.98;100.00;95160.38;5061405;28;20044;-74
2022/05/25 01:17:42;;;;;;;8.25;5.15;;;;;;;10.97;100.00;95159.56;5059633;28;20067;-74
2022/05/25 01:20:16;;;;;;;8.57;5.13;;;;;;;11.08;100.00;95165.53;5052911;28;20041;-74
2022/05/25 01:23:07;;;;;;;6.80;4.78;;;;;;;11.04;100.00;95164.53;5061372;28;20413;-74
2022/05/25 01:26:20;;;;;;;7.22;4.88;;;;;;;10.96;100.00;95173.03;5072592;28;20055;-75
2022/05/25 01:28:57;;;;;;;7.15;4.95;;;;;;;10.95;100.00;95171.44;5063669;28;20117;-74
2022/05/25 01:31:47;;;;;;;6.55;4.70;;;;;;;11.01;100.00;95171.13;5051651;28;20056;-74
2022/05/25 01:34:18;;;;;;;9.07;4.53;;;;;;;11.06;100.00;95176.34;5064853;28;20123;-74
2022/05/25 01:36:43;;;;;;;7.20;4.40;;;;;;;11.06;100.00;95172.91;5069785;28;20048;-74
2022/05/25 01:39:14;;;;;;;9.63;4.30;;;;;;;11.05;100.00;95171.34;5067910;28;20052;-74
2022/05/25 01:41:46;;;;;;;7.32;4.13;;;;;;;11.12;100.00;95171.81;5052928;28;20067;-75
2022/05/25 01:44:17;;;;;;;4.95;3.63;;;;;;;11.13;100.00;95168.09;5055793;28;20056;-74
2022/05/25 01:46:48;;;;;;;7.53;3.70;;;;;;;11.08;100.00;95170.78;5051659;28;20360;-74
2022/05/25 01:49:18;;;;;;;6.28;3.92;;;;;;;11.02;100.00;95172.69;5051608;28;20494;-74
2022/05/25 01:51:49;;;;;;;6.30;3.75;;;;;;;11.02;100.00;95171.91;5052164;28;20045;-74
2022/05/25 01:54:22;;;;;;;5.55;3.80;;;;;;;11.03;100.00;95173.47;5064474;28;20033;-74
2022/05/25 01:56:53;;;;;;;6.95;3.97;;;;;;;11.03;100.00;95178.75;5070709;28;20043;-74
2022/05/25 01:59:20;;;;;;;5.85;3.97;;;;;;;11.03;100.00;95178.75;5051649;28;20044;-74
2022/05/25 02:04:40;;;;;;;5.47;3.63;;;;;;;11.02;100.00;95195.59;5066705;28;20032;-74
2022/05/25 02:07:20;;;;;;;10.43;4.07;;;;;;;11.02;100.00;95192.97;5057017;28;20502;-74
2022/05/25 02:10:19;;;;;;;6.50;3.47;;;;;;;11.01;100.00;95186.16;5070534;28;20040;-73
2022/05/25 02:13:26;;;;;;;5.10;3.40;;;;;;;11.01;100.00;95175.63;5061016;28;20391;-74
2022/05/25 02:15:58;;;;;;;7.43;3.80;;;;;;;11.02;100.00;95169.25;5064560;28;20669;-74
2022/05/25 02:18:24;;;;;;;10.27;4.63;;;;;;;10.97;100.00;95179.88;5055028;28;20045;-75
2022/05/25 02:21:14;;;;;;;14.40;5.20;;;;;;;11.04;100.00;95185.59;5049884;28;20703;-74
2022/05/25 02:23:58;;;;;;;10.73;5.28;;;;;;;11.08;100.00;95202.41;5067440;28;20040;-75
2022/05/25 02:26:29;;;;;;;9.05;4.70;;;;;;;11.12;100.00;95203.41;5052183;28;20036;-75
2022/05/25 02:29:24;;;;;;;9.40;5.03;;;;;;;11.15;100.00;95205.47;5051621;28;20560;-74
2022/05/25 02:31:56;;;;;;;7.72;4.97;;;;;;;11.18;100.00;95207.56;5055718;28;20402;-74
2022/05/25 02:34:24;;;;;;;8.38;5.10;;;;;;;11.16;100.00;95207.06;5071610;28;20040;-73
2022/05/25 02:36:51;;;;;;;11.73;5.68;;;;;;;11.14;100.00;95205.75;5068005;28;20063;-74
2022/05/25 02:39:17;;;;;;;10.40;5.18;;;;;;;11.16;100.00;95199.16;5050072;28;20036;-74
2022/05/25 02:41:52;;;;;;;10.50;5.28;;;;;;;11.18;100.00;95212.81;5052039;28;20043;-73
2022/05/25 02:44:18;;;;;;;10.40;5.68;;;;;;;11.19;100.00;95206.50;5071003;28;20383;-73
2022/05/25 02:46:44;;;;;;;10.30;5.47;;;;;;;11.22;100.00;95213.84;5055758;28;20083;-73
2022/05/25 02:49:10;;;;;;;9.57;5.57;;;;;;;11.32;100.00;95209.50;5067719;28;20040;-73
2022/05/25 02:51:36;;;;;;;12.90;6.05;;;;;;;11.35;100.00;95216.84;5068748;28;20449;-73
2022/05/25 02:54:02;;;;;;;8.68;5.45;;;;;;;11.23;100.00;95220.69;5065460;28;20044;-73
2022/05/25 02:56:29;;;;;;;9.25;5.60;;;;;;;11.18;100.00;95228.63;5059823;28;20104;-74
2022/05/25 02:58:55;;;;;;;8.05;5.22;;;;;;;11.15;100.00;95239.72;5053039;28;20048;-74
2022/05/25 03:01:20;;;;;;;12.05;5.20;;;;;;;11.14;100.00;95227.59;5054122;28;20436;-74
2022/05/25 03:03:46;;;;;;;12.32;5.75;;;;;;;11.12;100.00;95235.00;5062870;28;20041;-74
2022/05/25 03:06:12;;;;;;;10.80;5.57;;;;;;;11.05;100.00;95234.56;5078151;28;20056;-73
2022/05/25 03:08:38;;;;;;;10.10;5.22;;;;;;;11.09;100.00;95235.53;5049384;28;20424;-74
2022/05/25 03:11:04;;;;;;;11.48;5.60;;;;;;;11.04;100.00;95227.72;5052490;28;20044;-73
2022/05/25 03:13:31;;;;;;;11.40;5.70;;;;;;;11.02;100.00;95229.81;5068821;28;20064;-73
2022/05/25 03:15:57;;;;;;;16.42;5.85;;;;;;;11.01;100.00;95223.00;5068188;28;20328;-73
2022/05/25 03:18:23;;;;;;;10.65;5.63;;;;;;;11.01;100.00;95234.31;5058066;28;20115;-73
2022/05/25 03:20:50;;;;;;;10.80;5.53;;;;;;;11.02;100.00;95229.81;5069759;28;20119;-73
2022/05/25 03:23:17;;;;;;;8.63;5.28;;;;;;;10.97;100.00;95243.06;5050044;28;20037;-73
2022/05/25 03:25:44;;;;;;;9.82;5.75;;;;;;;10.94;100.00;95238.34;5050488;28;20093;-73
2022/05/25 03:28:09;;;;;;;11.18;5.65;;;;;;;10.92;100.00;95236.78;5057901;28;20064;-73
2022/05/25 03:30:35;;;;;;;8.93;5.47;;;;;;;10.87;100.00;95243.94;5064065;28;20413;-73
2022/05/25 03:33:00;;;;;;;9.43;5.63;;;;;;;10.83;100.00;95243.72;5060652;28;20045;-73
2022/05/25 03:35:26;;;;;;;9.77;5.28;;;;;;;10.84;100.00;95239.22;5070284;28;20558;-74
2022/05/25 03:37:51;;;;;;;9.73;5.68;;;;;;;10.82;100.00;95250.03;5053205;28;20118;-74
2022/05/25 03:40:18;;;;;;;10.70;5.97;;;;;;;10.77;100.00;95239.53;5055274;28;20059;-74
2022/05/25 03:42:45;;;;;;;11.73;5.78;;;;;;;10.81;100.00;95245.81;5049513;28;20086;-74
2022/05/25 03:45:14;;;;;;;14.10;6.10;;;;;;;10.88;100.00;95248.91;5050144;28;20182;-74
2022/05/25 03:47:39;;;;;;;13.00;6.72;;;;;;;10.85;100.00;95246.84;5057712;28;20428;-74
2022/05/25 03:50:06;;;;;;;13.68;6.20;;;;;;;10.97;100.00;95253.59;5066637;28;20040;-73
2022/05/25 03:52:31;;;;;;;12.65;5.85;;;;;;;11.00;100.00;95263.56;5061567;28;20048;-74
2022/05/25 03:54:57;;;;;;;12.50;6.15;;;;;;;11.01;100.00;95265.13;5068682;28;20049;-75
2022/05/25 03:57:22;;;;;;;13.27;7.38;;;;;;;11.08;100.00;95260.34;5054102;28;20362;-75
2022/05/25 03:59:48;;;;;;;10.73;6.13;;;;;;;11.14;100.00;95269.75;5059494;28;20048;-75
2022/05/25 04:02:14;;;;;;;10.52;6.07;;;;;;;11.22;100.00;95263.88;5052705;28;20098;-75
2022/05/25 04:04:39;;;;;;;12.50;6.63;;;;;;;11.18;100.00;95270.75;5049881;28;20104;-75
2022/05/25 04:07:05;;;;;;;17.20;7.78;;;;;;;11.25;100.00;95275.72;5048888;28;20037;-75
2022/05/25 04:09:31;;;;;;;15.73;7.53;;;;;;;11.32;100.00;95281.44;5058120;28;20033;-73
2022/05/25 04:11:57;;;;;;;15.27;7.30;;;;;;;11.35;100.00;95282.69;5061583;28;20082;-72
2022/05/25 04:14:23;;;;;;;15.20;7.45;;;;;;;11.44;100.00;95288.94;5058305;28;20033;-73
2022/05/25 04:16:49;;;;;;;12.93;8.30;;;;;;;11.40;100.00;95285.28;5049445;28;20119;-73
2022/05/25 04:19:15;;;;;;;15.93;8.05;;;;;;;11.38;100.00;95290.06;5049358;28;20123;-74
2022/05/25 04:21:42;;;;;;;15.07;9.13;;;;;;;11.41;100.00;95292.16;5054593;28;20414;-73
2022/05/25 04:24:08;;;;;;;13.35;8.13;;;;;;;11.39;100.00;95289.78;5069458;28;20044;-74
2022/05/25 04:26:34;;;;;;;14.75;9.15;;;;;;;11.40;100.00;95287.94;5050085;28;20063;-74
2022/05/25 04:29:02;;;;;;;17.70;9.52;;;;;;;11.38;100.00;95282.16;5061371;28;20037;-75
2022/05/25 04:31:28;;;;;;;18.98;9.30;;;;;;;11.39;100.00;95291.63;5065199;28;20044;-74
2022/05/25 04:33:54;;;;;;;22.67;9.98;;;;;;;11.39;100.00;95296.88;5069465;28;20045;-74
2022/05/25 04:36:20;;;;;;;21.00;10.85;;;;;;;11.43;100.00;95292.63;5063732;28;20055;-73
2022/05/25 04:38:46;;;;;;;25.15;11.00;;;;;;;11.44;100.00;95310.03;5067590;28;20047;-74
2022/05/25 04:41:12;;;;;;;21.95;10.77;;;;;;;11.40;100.00;95298.47;5057515;28;20044;-73
2022/05/25 04:43:38;;;;;;;21.48;11.02;;;;;;;11.48;100.00;95304.97;5049509;28;20712;-73
2022/05/25 04:46:09;;;;;;;21.10;11.18;;;;;;;11.51;100.00;95310.47;5049512;28;20045;-75
2022/05/25 04:48:35;;;;;;;19.50;10.52;;;;;;;11.51;100.00;95315.75;5049135;28;20041;-75
2022/05/25 04:51:00;;;;;;;26.80;11.55;;;;;;;11.55;100.00;95300.94;5055067;28;20110;-75
2022/05/25 04:53:27;;;;;;;21.77;12.27;;;;;;;11.46;100.00;95323.69;5069273;28;20189;-75
2022/05/25 04:58:45;;;;;;;27.67;11.80;;;;;;;11.53;100.00;95318.88;5051607;28;20391;-74
2022/05/25 05:01:13;;;;;;;26.37;12.03;;;;;;;11.50;100.00;95327.34;5055591;28;20410;-74
2022/05/25 05:03:39;;;;;;;28.00;13.32;;;;;;;11.54;100.00;95325.72;5067608;28;20281;-74
2022/05/25 05:06:09;;;;;;;24.92;12.57;;;;;;;11.54;100.00;95331.00;5064975;28;20872;-75
2022/05/25 05:08:35;;;;;;;27.10;14.20;;;;;;;11.51;100.00;95328.94;5049168;28;20044;-74
2022/05/25 05:11:09;;;;;;;28.15;13.95;;;;;;;11.46;100.00;95334.22;5051071;28;20049;-73
2022/05/25 05:13:37;;;;;;;27.65;14.00;;;;;;;11.53;100.00;95345.22;5061309;28;20401;-75
2022/05/25 05:16:06;;;;;;;28.23;14.27;;;;;;;11.48;100.00;95347.94;5068646;28;20051;-75
2022/05/25 05:18:32;;;;;;;26.83;14.23;;;;;;;11.46;100.00;95350.03;5060471;28;20403;-75
2022/05/25 05:20:57;;;;;;;32.95;15.52;;;;;;;11.41;100.00;95358.00;5049151;28;20052;-74
2022/05/25 05:23:23;;;;;;;30.13;14.57;;;;;;;11.49;100.00;95373.19;5058026;28;20037;-74
2022/05/25 05:25:49;;;;;;;36.83;15.85;;;;;;;11.44;100.00;95374.03;5048515;28;20045;-74
2022/05/25 05:28:17;;;;;;;32.72;16.00;;;;;;;11.40;100.00;95377.50;5050769;28;20045;-74
2022/05/25 05:30:50;;;;;;;32.72;16.17;;;;;;;11.43;100.00;95396.19;5053326;28;20037;-74
2022/05/25 05:33:16;;;;;;;30.08;15.70;;;;;;;11.48;100.00;95394.56;5057199;28;20720;-73
2022/05/25 05:35:46;;;;;;;32.22;15.50;;;;;;;11.41;100.00;95400.94;5047778;28;20171;-74
2022/05/25 05:38:13;;;;;;;40.03;16.73;;;;;;;11.43;100.00;95398.03;5056617;28;20047;-75
2022/05/25 05:40:39;;;;;;;31.70;16.48;;;;;;;11.53;100.00;95407.69;5054140;28;20044;-79
2022/05/25 05:43:06;;;;;;;34.53;16.63;;;;;;;11.41;100.00;95400.16;5057010;28;20049;-75
2022/05/25 05:45:40;;;;;;;35.45;16.25;;;;;;;11.41;100.00;95415.97;5062013;28;20040;-75
2022/05/25 05:48:20;;;;;;;32.97;16.17;;;;;;;11.49;100.00;95425.91;5068048;28;20097;-77
2022/05/25 05:50:48;;;;;;;35.42;17.52;;;;;;;11.43;100.00;95429.66;5060939;28;20064;-76
2022/05/25 05:53:15;;;;;;;31.38;15.77;;;;;;;11.38;100.00;95432.34;5055297;28;20148;-75
2022/05/25 05:55:42;;;;;;;33.63;14.98;;;;;;;11.38;100.00;95437.63;5063858;28;20032;-78
2022/05/25 05:58:08;;;;;;;28.17;14.52;;;;;;;11.40;100.00;95441.53;5061942;28;20041;-78
2022/05/25 06:00:34;;;;;;;32.38;15.00;;;;;;;11.37;100.00;95446.56;5055453;28;20041;-77
2022/05/25 06:03:00;;;;;;;27.02;13.85;;;;;;;11.21;100.00;95443.28;5059432;28;20550;-78
2022/05/25 06:05:25;;;;;;;30.63;13.57;;;;;;;11.24;100.00;95448.75;5057810;28;20037;-77
2022/05/25 06:07:51;;;;;;;33.42;13.73;;;;;;;11.23;100.00;95449.03;5069554;28;20044;-78
2022/05/25 06:10:17;;;;;;;25.70;13.30;;;;;;;11.24;100.00;95459.28;5064799;28;20506;-77
2022/05/25 06:12:42;;;;;;;24.30;11.13;;;;;;;11.14;100.00;95459.38;5073021;28;20436;-76
2022/05/25 06:20:36;;;;;;;26.25;13.10;;;;;;;11.17;100.00;95479.13;5066738;28;20098;-76
2022/05/25 06:23:02;;;;;;;30.60;12.60;;;;;;;11.13;100.00;95484.13;5066604;28;20086;-76
2022/05/25 06:25:28;;;;;;;24.95;12.02;;;;;;;11.17;100.00;95495.69;5065984;28;20048;-74
2022/05/25 06:27:55;;;;;;;26.42;11.18;;;;;;;10.99;100.00;95494.50;5053677;28;20040;-75
2022/05/25 06:30:21;;;;;;;20.15;11.05;;;;;;;11.10;100.00;95495.22;5053000;28;20099;-73
2022/05/25 06:32:46;;;;;;;20.88;10.98;;;;;;;11.11;100.00;95490.75;5052737;28;20494;-78
2022/05/25 06:35:13;;;;;;;22.50;10.98;;;;;;;11.12;100.00;95493.09;5053872;28;20045;-78
2022/05/25 06:37:39;;;;;;;22.90;12.20;;;;;;;11.20;100.00;95500.41;5060213;28;20094;-75
2022/05/25 06:40:06;;;;;;;24.23;11.98;;;;;;;11.24;100.00;95505.94;5061830;28;20567;-80
2022/05/25 06:42:31;;;;;;;28.30;12.85;;;;;;;11.22;100.00;95513.31;5057957;28;20778;-79
2022/05/25 06:44:57;;;;;;;23.52;12.27;;;;;;;11.31;100.00;95521.44;5071312;28;20051;-75
2022/05/25 06:47:23;;;;;;;21.98;11.75;;;;;;;11.25;100.00;95518.84;5051602;28;20041;-75
2022/05/25 06:49:53;;;;;;;21.60;12.25;;;;;;;11.26;100.00;95530.94;5058386;28;20060;-76
2022/05/25 06:52:18;;;;;;;20.67;11.85;;;;;;;11.32;100.00;95538.81;5066790;28;20036;-76
2022/05/25 06:54:44;;;;;;;26.25;11.73;;;;;;;11.33;100.00;95541.16;5055996;28;20426;-76
2022/05/25 06:57:09;;;;;;;20.27;11.25;;;;;;;11.35;100.00;95538.25;5058914;28;20068;-76
2022/05/25 06:59:35;;;;;;;20.58;10.98;;;;;;;11.41;100.00;95537.97;5060613;28;20171;-79
2022/05/25 07:02:00;;;;;;;23.83;11.65;;;;;;;11.47;100.00;95541.34;5056408;28;20487;-80
2022/05/25 07:04:26;;;;;;;24.23;13.15;;;;;;;11.45;100.00;95535.59;5057572;28;20041;-80
2022/05/25 07:06:51;;;;;;;25.92;13.07;;;;;;;11.43;100.00;95550.88;5061540;28;20049;-76
2022/05/25 07:09:17;;;;;;;19.42;10.48;;;;;;;11.30;100.00;95535.66;5056840;28;20032;-78
2022/05/25 07:11:43;;;;;;;18.35;10.55;;;;;;;11.39;100.00;95544.56;5055923;28;20624;-77
2022/05/25 07:14:09;;;;;;;29.55;9.70;;;;;;;11.38;100.00;95558.81;5054213;28;20037;-77
2022/05/25 07:16:36;;;;;;;16.17;9.02;;;;;;;11.48;100.00;95560.56;5051875;28;20045;-77
2022/05/25 07:19:03;;;;;;;20.05;8.70;;;;;;;11.43;100.00;95561.41;5052524;28;20485;-75
2022/05/25 07:21:31;;;;;;;12.32;7.07;;;;;;;11.27;100.00;95573.88;5054017;28;20384;-76
2022/05/25 07:23:58;;;;;;;12.35;6.20;;;;;;;11.22;100.00;95572.06;5063394;28;20047;-76
2022/05/25 07:26:25;;;;;;;15.15;6.20;;;;;;;11.36;100.00;95576.72;5060581;28;20063;-76
2022/05/25 07:28:51;;;;;;;14.52;5.28;;;;;;;11.27;100.00;95574.66;5060545;28;20040;-78
2022/05/25 07:31:21;;;;;;;7.07;4.93;;;;;;;11.29;100.00;95576.25;5061339;28;20055;-79
2022/05/25 07:33:53;;;;;;;9.43;5.40;;;;;;;11.35;100.00;95575.16;5051065;28;20153;-75
2022/05/25 07:36:19;;;;;;;9.25;5.53;;;;;;;11.46;100.00;95571.41;5060719;28;20036;-75
2022/05/25 07:38:49;;;;;;;8.60;5.07;;;;;;;11.44;100.00;95568.25;5066351;28;20036;-75
2022/05/25 07:41:17;;;;;;;11.07;5.05;;;;;;;11.44;100.00;95584.84;5061192;28;20040;-75
2022/05/25 07:43:45;;;;;;;8.73;4.88;;;;;;;11.48;100.00;95585.09;5061652;28;20526;-75
2022/05/25 07:46:10;;;;;;;8.52;5.18;;;;;;;11.56;100.00;95581.88;5069877;28;20132;-76
2022/05/25 07:48:36;;;;;;;7.13;4.65;;;;;;;11.65;100.00;95578.66;5058951;28;20555;-79
2022/05/25 07:51:03;;;;;;;7.80;4.00;;;;;;;11.59;100.00;95589.25;5064477;28;20063;-76
2022/05/25 07:56:15;;;;;;;10.32;4.55;;;;;;;11.65;100.00;95589.19;5056854;28;20040;-76
2022/05/25 07:58:41;;;;;;;7.30;4.10;;;;;;;11.55;100.00;95584.78;5069407;28;20048;-76
2022/05/25 08:01:11;;;;;;;8.88;4.22;;;;;;;11.62;100.00;95595.81;5064636;28;20045;-76
2022/05/25 08:06:21;;;;;;;11.60;5.50;;;;;;;11.74;100.00;95598.13;5051302;28;20045;-77
2022/05/25 08:08:47;;;;;;;11.18;4.63;;;;;;;11.82;100.00;95600.16;5048438;28;20657;-76
2022/05/25 08:11:15;;;;;;;6.65;3.63;;;;;;;11.88;100.00;95598.28;5049167;28;20033;-75
2022/05/25 08:13:44;;;;;;;11.05;4.43;;;;;;;11.86;100.00;95603.81;5051434;28;20064;-76
2022/05/25 08:16:10;;;;;;;5.65;3.50;;;;;;;11.73;100.00;95601.81;5049281;28;20439;-76
2022/05/25 08:18:36;;;;;;;8.30;4.45;;;;;;;11.81;100.00;95606.50;5051381;28;20037;-77
2022/05/25 08:21:02;;;;;;;9.30;4.32;;;;;;;11.98;100.00;95595.59;5058966;28;20051;-76
2022/05/25 08:23:28;;;;;;;7.60;4.68;;;;;;;12.14;100.00;95591.00;5061872;28;20036;-77
2022/05/25 08:25:53;;;;;;;8.68;4.90;;;;;;;12.22;100.00;95590.38;5060237;28;20037;-78
2022/05/25 08:28:20;;;;;;;10.88;5.13;;;;;;;12.34;100.00;95589.22;5057727;28;20037;-76
2022/05/25 08:30:46;;;;;;;8.90;4.40;;;;;;;12.39;100.00;95589.19;5052556;28;20037;-77
2022/05/25 08:33:16;;;;;;;7.55;3.63;;;;;;;12.33;100.00;95587.66;5058624;28;20418;-76
2022/05/25 08:35:42;;;;;;;6.50;3.65;;;;;;;12.20;100.00;95599.66;5054414;28;20259;-79
2022/05/25 08:38:07;;;;;;;7.20;3.30;;;;;;;12.22;100.00;95603.56;5063046;28;20090;-78
2022/05/25 08:40:34;;;;;;;6.18;3.50;;;;;;;12.29;100.00;95598.75;5060071;28;20102;-76
2022/05/25 08:43:05;;;;;;;4.78;2.90;;;;;;;12.36;100.00;95613.50;5060195;28;20041;-77
2022/05/25 08:45:42;;;;;;;5.72;3.30;;;;;;;12.25;100.00;95608.28;5049753;28;20426;-77
2022/05/25 08:48:11;;;;;;;5.38;3.28;;;;;;;12.22;100.00;95608.06;5052902;28;20037;-76
2022/05/25 08:50:38;;;;;;;6.22;3.35;;;;;;;12.36;100.00;95608.22;5064071;28;20036;-76
2022/05/25 08:53:06;;;;;;;6.38;3.28;;;;;;;12.48;100.00;95606.78;5064187;28;20059;-74
2022/05/25 08:55:39;;;;;;;5.45;3.10;;;;;;;12.64;100.00;95609.25;5068918;28;20071;-74
2022/05/25 08:58:08;;;;;;;6.68;3.55;;;;;;;12.72;100.00;95627.13;5067255;28;20551;-77
2022/05/25 09:00:34;;;;;;;6.25;3.40;;;;;;;12.80;100.00;95625.72;5064743;28;20043;-75
2022/05/25 09:03:09;;;;;;;3.63;2.53;;;;;;;12.77;100.00;95628.94;5061739;28;20048;-77
2022/05/25 09:05:59;;;;;;;4.00;2.50;;;;;;;12.64;100.00;95636.47;5060867;28;20040;-77
2022/05/25 09:08:24;;;;;;;4.45;2.92;;;;;;;12.75;100.00;95628.44;5060953;28;20033;-78
2022/05/25 09:11:06;;;;;;;5.32;3.20;;;;;;;12.94;100.00;95626.66;5065110;28;20064;-77
2022/05/25 09:13:43;;;;;;;5.00;2.60;;;;;;;13.03;100.00;95636.59;5052757;28;20045;-77
2022/05/25 09:16:22;;;;;;;5.45;2.78;;;;;;;12.95;100.00;95636.13;5063983;28;20090;-77
2022/05/25 09:19:01;;;;;;;4.07;2.50;;;;;;;12.87;100.00;95628.81;5062474;28;20036;-77
2022/05/25 09:21:33;;;;;;;5.30;3.25;;;;;;;13.13;100.00;95631.19;5064140;28;20452;-77
2022/05/25 09:24:03;;;;;;;4.80;2.42;;;;;;;13.26;100.00;95630.50;5065415;28;20090;-78
2022/05/25 09:26:28;;;;;;;5.60;2.50;;;;;;;13.34;100.00;95631.72;5063019;28;20052;-78
2022/05/25 09:28:59;;;;;;;4.38;2.47;;;;;;;13.34;100.00;95627.25;5055424;28;20070;-77
2022/05/25 09:31:31;;;;;;;6.25;2.95;;;;;;;13.32;100.00;95632.03;5057813;28;20041;-78
2022/05/25 09:34:03;;;;;;;4.70;2.80;;;;;;;13.29;100.00;95622.00;5053460;28;20037;-76
2022/05/25 09:36:42;;;;;;;6.43;3.00;;;;;;;13.23;100.00;95641.66;5058107;28;20250;-78
2022/05/25 09:39:21;;;;;;;5.18;2.65;;;;;;;13.36;100.00;95639.41;5066620;28;20051;-77
2022/05/25 09:41:47;;;;;;;4.40;2.70;;;;;;;13.38;100.00;95637.28;5061991;28;20127;-76
2022/05/25 09:44:18;;;;;;;4.85;2.30;;;;;;;13.21;100.00;95638.50;5064562;28;20464;-78
2022/05/25 09:47:04;;;;;;;6.00;2.70;;;;;;;13.35;100.00;95625.41;5055714;28;20044;-78
2022/05/25 09:49:44;;;;;;;4.65;2.40;;;;;;;13.54;100.00;95628.06;5053542;28;20037;-73
2022/05/25 09:52:48;;;;;;;4.93;2.60;;;;;;;13.59;100.00;95635.13;5053693;28;20041;-79
2022/05/25 09:55:25;;;;;;;3.53;2.03;;;;;;;13.45;100.00;95632.44;5065942;28;20151;-76
2022/05/25 09:57:56;;;;;;;3.70;2.47;;;;;;;13.33;100.00;95630.16;5066218;28;20051;-79
2022/05/25 10:00:38;;;;;;;3.65;2.03;;;;;;;13.62;100.00;95645.94;5063696;28;20041;-79
2022/05/25 10:03:09;;;;;;;3.38;2.28;;;;;;;13.76;100.00;95642.59;5054699;28;20045;-76
2022/05/25 10:05:56;;;;;;;4.95;2.10;;;;;;;13.75;100.00;95646.28;5062354;28;20044;-78
2022/05/25 10:08:36;;;;;;;4.10;2.10;;;;;;;13.95;99.61;95646.03;5054131;28;20090;-78
2022/05/25 10:11:27;;;;;;;4.55;2.20;;;;;;;13.79;100.00;95652.59;5058294;28;20049;-78
2022/05/25 10:13:55;;;;;;;5.50;2.50;;;;;;;13.58;100.00;95663.44;5054827;28;20128;-77
2022/05/25 10:16:28;;;;;;;3.03;2.20;;;;;;;13.80;100.00;95664.75;5051756;28;20044;-78
2022/05/25 10:18:55;;;;;;;3.17;2.13;;;;;;;13.93;100.00;95656.09;5058477;28;20071;-77
2022/05/25 10:21:25;;;;;;;6.97;2.50;;;;;;;13.93;100.00;95657.97;5052089;28;20045;-78
2022/05/25 10:23:51;;;;;;;3.67;2.10;;;;;;;13.95;96.50;95656.59;5069907;28;20040;-78
2022/05/25 10:26:31;;;;;;;3.60;2.20;;;;;;;13.72;100.00;95658.25;5062255;28;20668;-79
2022/05/25 10:29:09;;;;;;;4.05;2.50;;;;;;;13.96;100.00;95658.16;5073806;28;20040;-78
2022/05/25 10:37:26;;;;;;;4.72;2.38;;;;;;;13.83;100.00;95649.09;5067343;28;20029;-83
2022/05/25 10:39:54;;;;;;;4.25;2.55;;;;;;;13.93;100.00;95653.44;5056115;28;20506;-77
2022/05/25 10:42:22;;;;;;;5.03;2.20;;;;;;;13.91;100.00;95650.31;5054650;28;20071;-78
2022/05/25 10:44:59;;;;;;;3.55;2.20;;;;;;;13.93;100.00;95652.66;5069933;28;20489;-78
2022/05/25 10:47:47;;;;;;;4.95;2.50;;;;;;;13.84;100.00;95660.47;5055801;28;20037;-77
2022/05/25 10:50:34;;;;;;;6.32;2.85;;;;;;;13.78;100.00;95651.03;5056606;28;20044;-78
2022/05/25 10:53:04;;;;;;;4.32;2.20;;;;;;;14.13;100.00;95652.34;5061928;28;20041;-78
2022/05/25 10:56:07;;;;;;;3.22;2.10;;;;;;;14.18;100.00;95659.44;5052297;28;20395;-78
2022/05/25 10:58:54;;;;;;;5.95;2.15;;;;;;;14.40;100.00;95655.41;5052069;28;20056;-77
2022/05/25 11:01:41;;;;;;;3.83;2.10;;;;;;;14.60;100.00;95659.59;5054331;28;20526;-76
2022/05/25 11:04:13;;;;;;;4.28;1.90;;;;;;;14.73;96.17;95664.91;5056134;28;20040;-77
2022/05/25 11:06:47;;;;;;;4.88;1.80;;;;;;;14.86;97.95;95657.28;5064488;28;20041;-76
2022/05/25 11:09:23;;;;;;;2.90;1.73;;;;;;;15.19;94.22;95650.03;5060341;28;20040;-77
2022/05/25 11:12:10;;;;;;;2.25;1.60;;;;;;;15.29;87.65;95664.97;5058888;28;20048;-77
2022/05/25 11:14:36;;;;;;;2.92;1.70;;;;;;;15.35;100.00;95657.69;5066743;28;20034;-76
2022/05/25 11:17:44;;;;;;;1.80;1.50;;;;;;;15.46;83.70;95659.06;5060929;28;20582;-77
2022/05/25 11:20:32;;;;;;;2.08;1.40;;;;;;;15.33;87.33;95655.34;5049963;28;20087;-77
2022/05/25 11:23:12;;;;;;;2.75;1.50;;;;;;;15.41;83.52;95661.81;5064543;28;20457;-76
2022/05/25 11:26:01;;;;;;;3.13;1.73;;;;;;;15.25;92.79;95670.06;5051898;28;20041;-76
2022/05/25 11:28:48;;;;;;;3.47;1.63;;;;;;;14.84;100.00;95670.03;5051595;28;20061;-75
2022/05/25 11:31:21;;;;;;;3.25;1.90;;;;;;;14.97;95.23;95658.69;5057852;28;20036;-76
2022/05/25 11:34:36;;;;;;;10.00;1.88;;;;;;;15.18;95.20;95669.66;5065290;28;20040;-76
2022/05/25 11:37:29;;;;;;;2.90;1.80;;;;;;;15.17;96.35;95667.31;5070896;28;20044;-75
2022/05/25 11:39:57;;;;;;;3.60;1.98;;;;;;;15.12;99.37;95675.38;5070155;28;20041;-76
2022/05/25 11:42:54;;;;;;;2.58;1.60;;;;;;;15.10;90.44;95666.91;5053062;28;20107;-75
2022/05/25 11:45:46;;;;;;;2.42;1.77;;;;;;;15.37;92.05;95672.25;5051379;28;20502;-77
2022/05/25 11:48:19;;;;;;;3.28;1.42;;;;;;;15.43;93.76;95664.97;5050360;28;20053;-76
2022/05/25 11:51:11;;;;;;;2.88;1.52;;;;;;;15.37;92.43;95672.25;5063297;28;20041;-76
2022/05/25 11:54:04;;;;;;;1.83;1.50;;;;;;;15.15;92.14;95682.75;5069083;28;20040;-75
2022/05/25 11:56:45;;;;;;;3.42;1.83;;;;;;;15.24;95.40;95675.66;5068518;28;20048;-76
2022/05/25 11:59:30;;;;;;;2.08;1.40;;;;;;;15.60;88.84;95669.63;5066151;28;20124;-76
2022/05/25 12:02:28;;;;;;;5.88;1.70;;;;;;;15.64;85.77;95670.63;5054252;28;20048;-76
2022/05/25 12:05:02;;;;;;;2.85;1.60;;;;;;;15.66;88.26;95673.78;5061488;28;20040;-76